Time;durP1;ratioP1;P1;durP2;ratioP2;P2;SDS_P1;SDS_P2;PMS_P1;PMS_P2;Temp;Humidity;BMP_temperature;BMP_pressure;BME280_temperature;BME280_humidity;BME280_pressure;Samples;Min_cycle;Max_cycle;Signal;HPM_P1;HPM_P2
2024/01/29 14:13:02;;;;;;;5.55;1.75;;;;;;;11.54;69.14;94158.19;2100544;28;20071;-80
2024/01/29 14:14:13;;;;;;;4.28;2.08;;;;;;;11.38;74.21;94163.31;2082421;28;20041;-79
2024/01/29 14:15:14;;;;;;;3.13;2.10;;;;;;;11.31;75.33;94156.09;2079550;28;20056;-79
2024/01/29 14:16:15;;;;;;;5.30;1.88;;;;;;;11.20;80.11;94154.66;2063178;28;20072;-80
2024/01/29 14:17:16;;;;;;;2.35;1.60;;;;;;;11.05;75.12;94159.34;2060995;28;20900;-81
2024/01/29 14:18:17;;;;;;;3.25;1.73;;;;;;;10.77;78.60;94165.63;2061182;28;20033;-80
2024/01/29 14:19:18;;;;;;;2.92;1.77;;;;;;;10.65;84.90;94158.03;2065652;28;20543;-80
2024/01/29 14:20:20;;;;;;;2.85;2.17;;;;;;;10.58;87.79;94164.22;2084847;28;20032;-79
2024/01/29 14:21:23;;;;;;;3.85;1.90;;;;;;;10.53;86.66;94154.66;2079057;28;20029;-79
2024/01/29 14:22:24;;;;;;;2.55;1.60;;;;;;;10.49;85.42;94153.94;2070184;28;20467;-80
2024/01/29 14:23:25;;;;;;;8.15;1.90;;;;;;;10.44;91.08;94150.88;2061542;28;20034;-80
2024/01/29 14:24:26;;;;;;;2.78;1.55;;;;;;;10.28;94.36;94159.38;2062375;28;20031;-80
2024/01/29 14:25:28;;;;;;;3.70;1.83;;;;;;;10.19;97.25;94162.41;2065728;28;20022;-80
2024/01/29 14:26:28;;;;;;;5.55;1.48;;;;;;;10.22;97.23;94155.53;2062113;28;20030;-79
2024/01/29 14:27:30;;;;;;;2.63;1.77;;;;;;;9.96;100.00;94164.75;2067888;28;20041;-80
2024/01/29 14:28:32;;;;;;;3.67;2.08;;;;;;;9.75;100.00;94162.91;2069316;28;20029;-80
2024/01/29 14:29:33;;;;;;;4.75;1.95;;;;;;;9.78;100.00;94152.22;2069042;28;20044;-78
2024/01/29 14:30:36;;;;;;;3.33;1.90;;;;;;;9.76;100.00;94156.41;2063693;28;20049;-80
2024/01/29 14:31:40;;;;;;;4.00;1.75;;;;;;;9.78;100.00;94160.22;2061771;28;20030;-79
2024/01/29 14:32:41;;;;;;;5.10;1.85;;;;;;;9.67;100.00;94153.38;2063117;28;20033;-80
2024/01/29 14:33:42;;;;;;;4.63;1.60;;;;;;;9.53;100.00;94156.84;2067554;28;20034;-78
2024/01/29 14:34:43;;;;;;;3.22;1.92;;;;;;;9.41;100.00;94157.22;2077174;28;20025;-79
2024/01/29 14:35:44;;;;;;;5.65;1.55;;;;;;;9.39;100.00;94157.59;2072163;28;20038;-80
2024/01/29 14:36:45;;;;;;;5.03;1.63;;;;;;;9.26;100.00;94159.91;2072078;28;20029;-79
2024/01/29 14:37:46;;;;;;;2.40;1.60;;;;;;;9.45;100.00;94164.09;2074298;28;20083;-79
2024/01/29 14:38:47;;;;;;;3.17;1.60;;;;;;;9.41;100.00;94157.22;2082104;28;20030;-79
2024/01/29 14:39:48;;;;;;;2.00;1.63;;;;;;;9.24;100.00;94156.84;2078103;28;20590;-79
2024/01/29 14:40:50;;;;;;;3.03;1.80;;;;;;;9.33;100.00;94159.88;2068606;28;20267;-79
2024/01/29 14:41:51;;;;;;;2.72;1.55;;;;;;;9.35;100.00;94154.19;2067612;28;20034;-80
2024/01/29 14:42:52;;;;;;;4.15;2.05;;;;;;;9.10;100.00;94158.75;2071421;28;20037;-79
2024/01/29 14:43:53;;;;;;;6.40;2.00;;;;;;;9.13;100.00;94157.97;2074837;28;20628;-79
2024/01/29 14:44:55;;;;;;;3.55;1.50;;;;;;;9.03;100.00;94154.16;2064486;28;20022;-80
2024/01/29 14:45:56;;;;;;;3.95;1.60;;;;;;;8.96;100.00;94154.94;2070652;28;20399;-80
2024/01/29 14:46:57;;;;;;;2.92;2.17;;;;;;;8.99;100.00;94153.38;2080239;28;20036;-80
2024/01/29 14:47:58;;;;;;;6.50;1.88;;;;;;;8.96;100.00;94152.25;2070089;28;20141;-78
2024/01/29 14:48:59;;;;;;;3.65;1.75;;;;;;;8.87;100.00;94162.53;2076105;28;20040;-79
2024/01/29 14:50:01;;;;;;;4.50;1.85;;;;;;;8.69;100.00;94156.38;2073108;28;20085;-79
2024/01/29 14:51:02;;;;;;;4.38;1.95;;;;;;;8.80;100.00;94154.50;2059564;28;20033;-79
2024/01/29 14:52:04;;;;;;;2.28;1.98;;;;;;;8.70;100.00;94161.34;2068887;28;20067;-78
2024/01/29 14:53:05;;;;;;;5.50;2.08;;;;;;;8.48;100.00;94159.78;2079673;28;20035;-80
2024/01/29 14:54:07;;;;;;;2.97;1.85;;;;;;;8.56;100.00;94151.41;2074111;28;20836;-79
2024/01/29 14:55:09;;;;;;;4.30;1.85;;;;;;;8.62;100.00;94153.72;2066224;28;20656;-78
2024/01/29 14:56:10;;;;;;;3.50;2.10;;;;;;;8.52;100.00;94147.97;2066012;28;20120;-79
2024/01/29 14:57:12;;;;;;;3.60;1.80;;;;;;;8.58;100.00;94151.78;2068940;28;20494;-80
2024/01/29 14:58:13;;;;;;;3.78;1.80;;;;;;;8.60;100.00;94155.97;2066725;28;20606;-80
2024/01/29 14:59:14;;;;;;;4.10;1.90;;;;;;;8.55;100.00;94154.44;2074329;28;20566;-79
2024/01/29 15:00:15;;;;;;;6.32;1.90;;;;;;;8.34;100.00;94155.13;2066529;28;20033;-79
2024/01/29 15:01:16;;;;;;;3.58;1.88;;;;;;;8.24;100.00;94153.16;2055501;28;20672;-81
2024/01/29 15:02:17;;;;;;;4.03;2.05;;;;;;;8.30;100.00;94157.78;2074083;28;20080;-81
2024/01/29 15:03:18;;;;;;;6.22;2.13;;;;;;;8.32;100.00;94155.50;2084027;28;20091;-80
2024/01/29 15:04:19;;;;;;;4.20;2.10;;;;;;;8.08;100.00;94159.59;2077524;28;20021;-80
2024/01/29 15:05:20;;;;;;;3.05;2.38;;;;;;;8.25;100.00;94152.03;2070375;28;20429;-80
2024/01/29 15:06:27;;;;;;;4.45;2.58;;;;;;;8.20;100.00;94152.41;2070644;28;20026;-79
2024/01/29 15:07:28;;;;;;;5.03;2.25;;;;;;;8.09;100.00;94157.69;2071634;28;20392;-79
2024/01/29 15:08:29;;;;;;;4.25;2.30;;;;;;;8.03;100.00;94164.50;2074345;28;20046;-80
2024/01/29 15:09:30;;;;;;;4.10;2.40;;;;;;;7.86;100.00;94157.97;2068607;28;20022;-79
2024/01/29 15:10:31;;;;;;;6.03;3.00;;;;;;;7.89;100.00;94159.84;2060329;28;20117;-78
2024/01/29 15:11:32;;;;;;;5.57;2.63;;;;;;;7.66;100.00;94157.44;2057584;28;20030;-80
2024/01/29 15:12:33;;;;;;;4.47;2.80;;;;;;;7.59;100.00;94157.41;2067110;28;20026;-79
2024/01/29 15:13:34;;;;;;;7.28;3.67;;;;;;;7.70;100.00;94160.13;2070331;28;20324;-80
2024/01/29 15:14:35;;;;;;;5.45;2.95;;;;;;;7.84;100.00;94152.22;2077560;28;20486;-79
2024/01/29 15:15:36;;;;;;;6.10;2.60;;;;;;;7.79;100.00;94160.56;2086710;28;20123;-79
2024/01/29 15:16:37;;;;;;;4.53;2.60;;;;;;;7.56;100.00;94164.25;2078341;28;20540;-79
2024/01/29 15:17:38;;;;;;;3.60;2.35;;;;;;;7.61;100.00;94162.38;2085052;28;20039;-79
2024/01/29 15:18:39;;;;;;;4.07;2.72;;;;;;;7.51;100.00;94159.28;2078553;28;20067;-80
2024/01/29 15:19:40;;;;;;;4.55;3.13;;;;;;;7.34;100.00;94167.13;2080707;28;20388;-80
2024/01/29 15:20:42;;;;;;;5.95;2.78;;;;;;;7.35;100.00;94166.75;2087080;28;20058;-80
2024/01/29 15:21:43;;;;;;;3.80;2.58;;;;;;;7.15;100.00;94163.53;2077386;28;20025;-79
2024/01/29 15:22:44;;;;;;;5.38;2.80;;;;;;;7.36;100.00;94168.25;2078739;28;20063;-79
2024/01/29 15:23:45;;;;;;;4.40;3.30;;;;;;;7.45;100.00;94165.28;2079916;28;20087;-80
2024/01/29 15:24:46;;;;;;;5.35;3.40;;;;;;;7.26;100.00;94168.97;2068165;28;20026;-79
2024/01/29 15:25:47;;;;;;;5.25;3.10;;;;;;;7.05;100.00;94175.63;2079808;28;20891;-80
2024/01/29 15:26:49;;;;;;;4.90;2.78;;;;;;;6.97;100.00;94167.94;2074658;28;20017;-79
2024/01/29 15:27:49;;;;;;;4.45;2.50;;;;;;;7.10;100.00;94171.09;2070725;28;20112;-80
2024/01/29 15:28:51;;;;;;;3.83;2.67;;;;;;;7.01;100.00;94176.72;2074811;28;20025;-79
2024/01/29 15:29:51;;;;;;;3.33;2.50;;;;;;;6.79;100.00;94173.09;2083626;28;20143;-80
2024/01/29 15:30:52;;;;;;;3.80;2.58;;;;;;;6.77;100.00;94178.03;2083980;28;20021;-79
2024/01/29 15:31:53;;;;;;;3.75;2.22;;;;;;;6.81;100.00;94173.50;2072131;28;20075;-80
2024/01/29 15:32:54;;;;;;;3.35;2.25;;;;;;;6.72;100.00;94179.13;2086909;28;20064;-80
2024/01/29 15:33:56;;;;;;;6.90;2.60;;;;;;;6.93;100.00;94175.88;2085995;28;20777;-78
2024/01/29 15:34:57;;;;;;;4.55;2.30;;;;;;;6.84;100.00;94175.41;2081958;28;20025;-79
2024/01/29 15:35:58;;;;;;;3.50;2.30;;;;;;;6.98;100.00;94185.41;2091733;28;20028;-79
2024/01/29 15:36:59;;;;;;;5.97;2.33;;;;;;;6.90;100.00;94171.31;2078148;28;20033;-79
2024/01/29 15:38:00;;;;;;;5.88;2.40;;;;;;;6.69;100.00;94179.06;2078402;28;20021;-80
2024/01/29 15:39:07;;;;;;;5.35;2.33;;;;;;;6.78;100.00;94176.88;2073067;28;20037;-79
2024/01/29 15:40:09;;;;;;;4.80;2.22;;;;;;;6.78;100.00;94184.84;2075440;28;20707;-80
2024/01/29 15:41:15;;;;;;;3.75;2.00;;;;;;;6.73;100.00;94172.66;2081443;28;20037;-79
2024/01/29 15:42:17;;;;;;;3.92;2.67;;;;;;;6.57;100.00;94174.78;2092204;28;21555;-79
2024/01/29 15:43:18;;;;;;;4.05;2.65;;;;;;;6.64;100.00;94180.16;2092812;28;20127;-80
2024/01/29 15:44:20;;;;;;;4.10;2.60;;;;;;;6.43;100.00;94178.03;2080790;28;20040;-79
2024/01/29 15:45:21;;;;;;;3.80;2.30;;;;;;;6.44;100.00;94176.16;2073065;28;20018;-79
2024/01/29 15:46:22;;;;;;;4.47;2.30;;;;;;;6.29;100.00;94183.97;2077142;28;20053;-79
2024/01/29 15:47:23;;;;;;;3.63;2.17;;;;;;;6.12;100.00;94186.41;2083923;28;20426;-80
2024/01/29 15:48:25;;;;;;;3.60;2.33;;;;;;;6.22;100.00;94185.75;2088692;28;20850;-80
2024/01/29 15:49:26;;;;;;;3.08;2.10;;;;;;;6.12;100.00;94181.84;2080985;28;20029;-80
2024/01/29 15:50:27;;;;;;;4.47;2.22;;;;;;;6.09;100.00;94184.47;2078220;28;20032;-80
2024/01/29 15:51:28;;;;;;;3.55;2.42;;;;;;;5.97;100.00;94188.09;2091625;28;20036;-79
2024/01/29 15:52:29;;;;;;;3.30;2.35;;;;;;;6.02;100.00;94195.75;2086603;28;20178;-79
2024/01/29 15:53:30;;;;;;;4.00;2.30;;;;;;;6.02;100.00;94193.88;2075849;28;20184;-80
2024/01/29 15:54:34;;;;;;;4.30;2.63;;;;;;;5.81;100.00;94190.91;2083186;28;20072;-80
2024/01/29 15:55:35;;;;;;;4.78;2.80;;;;;;;5.73;100.00;94191.91;2082114;28;20032;-79
2024/01/29 15:56:36;;;;;;;3.90;2.78;;;;;;;5.75;100.00;94197.63;2083814;28;20478;-79
2024/01/29 15:57:37;;;;;;;4.75;2.70;;;;;;;5.68;100.00;94186.94;2078313;28;20546;-78
2024/01/29 15:58:38;;;;;;;4.78;2.53;;;;;;;5.52;100.00;94193.13;2078510;28;20467;-79
2024/01/29 15:59:40;;;;;;;4.68;3.15;;;;;;;5.53;100.00;94194.69;2086999;28;20319;-80
2024/01/29 16:00:41;;;;;;;4.88;2.65;;;;;;;5.60;100.00;94194.00;2078359;28;20509;-80
2024/01/29 16:01:41;;;;;;;3.10;2.33;;;;;;;5.46;100.00;94196.47;2076576;28;20033;-81
2024/01/29 16:02:42;;;;;;;4.20;2.70;;;;;;;5.39;100.00;94197.09;2084336;28;20036;-80
2024/01/29 16:03:43;;;;;;;3.70;2.30;;;;;;;5.37;100.00;94193.28;2077816;28;20759;-79
2024/01/29 16:04:45;;;;;;;3.03;2.08;;;;;;;5.36;100.00;94195.19;2086771;28;20158;-78
2024/01/29 16:05:46;;;;;;;5.43;2.45;;;;;;;5.41;100.00;94194.13;2078121;28;20403;-78
2024/01/29 16:06:47;;;;;;;4.85;2.42;;;;;;;5.58;100.00;94196.25;2066619;28;20216;-78
2024/01/29 16:07:48;;;;;;;6.13;2.63;;;;;;;5.48;100.00;94200.25;2079184;28;20033;-80
2024/01/29 16:08:49;;;;;;;6.38;2.72;;;;;;;5.54;100.00;94198.09;2075982;28;20410;-80
2024/01/29 16:09:50;;;;;;;2.50;2.30;;;;;;;5.39;100.00;94202.41;2082842;28;20029;-79
2024/01/29 16:10:51;;;;;;;4.97;2.28;;;;;;;5.24;100.00;94203.31;2078445;28;20327;-79
2024/01/29 16:11:52;;;;;;;5.57;2.42;;;;;;;5.06;100.00;94200.38;2079205;28;20076;-80
2024/01/29 16:12:53;;;;;;;5.85;2.40;;;;;;;4.92;100.00;94198.25;2079821;28;20827;-80
2024/01/29 16:13:54;;;;;;;2.70;2.28;;;;;;;5.08;100.00;94202.66;2077809;28;20044;-79
2024/01/29 16:14:56;;;;;;;2.85;2.00;;;;;;;4.99;100.00;94200.25;2085570;28;20051;-79
2024/01/29 16:15:57;;;;;;;2.75;2.22;;;;;;;4.72;100.00;94212.66;2086422;28;20420;-80
2024/01/29 16:16:58;;;;;;;3.72;2.03;;;;;;;4.73;100.00;94203.56;2079935;28;20036;-79
2024/01/29 16:17:59;;;;;;;6.60;2.58;;;;;;;4.65;100.00;94209.84;2083538;28;20055;-79
2024/01/29 16:19:01;;;;;;;3.78;2.45;;;;;;;4.60;100.00;94205.63;2082903;28;20585;-78
2024/01/29 16:20:03;;;;;;;3.42;2.50;;;;;;;4.55;100.00;94209.31;2090678;28;20029;-79
2024/01/29 16:21:04;;;;;;;2.72;2.35;;;;;;;4.42;100.00;94210.56;2094133;28;20384;-80
2024/01/29 16:22:05;;;;;;;3.85;2.30;;;;;;;4.42;100.00;94207.16;2083765;28;20881;-79
2024/01/29 16:23:06;;;;;;;3.58;2.30;;;;;;;4.36;100.00;94216.50;2072724;28;20095;-78
2024/01/29 16:24:07;;;;;;;3.72;2.55;;;;;;;4.36;100.00;94209.34;2084504;28;20040;-80
2024/01/29 16:25:08;;;;;;;3.25;2.40;;;;;;;4.25;100.00;94211.00;2093488;28;20070;-79
2024/01/29 16:26:09;;;;;;;4.47;2.38;;;;;;;4.07;100.00;94208.00;2073862;28;20033;-79
2024/01/29 16:27:10;;;;;;;3.58;2.95;;;;;;;4.23;100.00;94216.66;2066105;28;20561;-78
2024/01/29 16:28:11;;;;;;;2.75;2.42;;;;;;;4.25;100.00;94213.63;2078063;28;20029;-79
2024/01/29 16:29:12;;;;;;;2.63;2.33;;;;;;;4.23;100.00;94215.88;2077662;28;20029;-79
2024/01/29 16:30:13;;;;;;;2.70;2.45;;;;;;;4.13;100.00;94217.19;2082906;28;20029;-79
2024/01/29 16:31:14;;;;;;;3.22;2.47;;;;;;;4.01;100.00;94210.16;2072804;28;20022;-81
2024/01/29 16:32:15;;;;;;;3.60;2.42;;;;;;;3.98;100.00;94210.84;2083285;28;20136;-80
2024/01/29 16:33:16;;;;;;;4.15;2.47;;;;;;;3.95;100.00;94218.69;2094585;28;20059;-80
2024/01/29 16:34:17;;;;;;;3.63;2.63;;;;;;;3.96;100.00;94212.31;2086123;28;20147;-81
2024/01/29 16:35:18;;;;;;;2.65;2.45;;;;;;;4.08;100.00;94212.16;2072036;28;20529;-79
2024/01/29 16:36:20;;;;;;;3.60;2.40;;;;;;;4.06;100.00;94205.69;2080041;28;20064;-80
2024/01/29 16:37:23;;;;;;;3.40;2.42;;;;;;;3.96;100.00;94207.78;2090186;28;20087;-79
2024/01/29 16:38:24;;;;;;;2.90;2.40;;;;;;;3.91;100.00;94209.94;2081084;28;20521;-77
2024/01/29 16:39:25;;;;;;;3.53;2.15;;;;;;;3.87;100.00;94209.84;2083034;28;20565;-79
2024/01/29 16:40:26;;;;;;;2.83;2.40;;;;;;;3.83;100.00;94209.00;1916756;28;20034;-79
2024/01/29 16:41:27;;;;;;;2.63;2.30;;;;;;;3.76;100.00;94216.78;1905161;28;23702;-79
2024/01/29 16:42:28;;;;;;;5.13;2.40;;;;;;;3.74;100.00;94216.38;2006622;28;20065;-79
2024/01/29 16:43:31;;;;;;;3.58;2.50;;;;;;;3.65;100.00;94221.84;1913514;28;21311;-80
2024/01/29 16:44:32;;;;;;;4.03;2.10;;;;;;;3.60;100.00;94218.69;1993822;28;20033;-79
2024/01/29 16:45:33;;;;;;;3.40;2.28;;;;;;;3.61;100.00;94213.06;2003247;28;22361;-80
2024/01/29 16:46:42;;;;;;;3.13;2.30;;;;;;;3.56;100.00;94217.84;1970301;28;20037;-78
2024/01/29 16:47:44;;;;;;;2.92;2.40;;;;;;;3.47;100.00;94218.81;1931349;28;23023;-79
2024/01/29 16:48:46;;;;;;;4.90;2.50;;;;;;;3.49;100.00;94213.94;1869999;28;20036;-80
2024/01/29 16:49:47;;;;;;;4.03;2.20;;;;;;;3.44;100.00;94214.19;1909359;28;20031;-80
2024/01/29 16:50:48;;;;;;;3.35;2.00;;;;;;;3.38;100.00;94212.94;1912828;28;20207;-78
2024/01/29 16:51:49;;;;;;;4.47;2.30;;;;;;;3.42;100.00;94213.75;1786065;28;22583;-77
2024/01/29 16:52:51;;;;;;;2.72;2.30;;;;;;;3.34;100.00;94224.53;1825048;28;20045;-80
2024/01/29 16:53:53;;;;;;;5.07;2.50;;;;;;;3.28;100.00;94211.56;1894389;28;20049;-78
2024/01/29 16:54:54;;;;;;;3.78;2.50;;;;;;;3.22;100.00;94206.88;1841749;28;22468;-80
2024/01/29 16:55:55;;;;;;;4.18;2.17;;;;;;;3.25;100.00;94203.56;1882314;28;21877;-78
2024/01/29 16:57:04;;;;;;;5.65;2.83;;;;;;;3.20;100.00;94212.50;1873988;28;21732;-79
2024/01/29 16:58:05;;;;;;;3.13;2.22;;;;;;;3.27;100.00;94206.63;1920293;28;23207;-78
2024/01/29 16:59:07;;;;;;;3.50;2.42;;;;;;;3.21;100.00;94208.75;1936314;28;20038;-80
2024/01/29 17:00:09;;;;;;;2.17;1.98;;;;;;;3.17;100.00;94205.28;1973323;28;20161;-81
2024/01/29 17:01:10;;;;;;;2.28;2.08;;;;;;;3.15;100.00;94207.47;1992276;28;20064;-80
2024/01/29 17:02:17;;;;;;;3.55;2.10;;;;;;;3.09;100.00;94200.16;2019058;28;20025;-78
2024/01/29 17:03:18;;;;;;;2.65;1.80;;;;;;;3.17;100.00;94205.28;2033681;28;20032;-80
2024/01/29 17:04:19;;;;;;;2.75;2.13;;;;;;;3.24;100.00;94209.94;2032944;28;20459;-78
2024/01/29 17:05:20;;;;;;;3.78;2.22;;;;;;;3.18;100.00;94212.09;2052608;28;21929;-78
2024/01/29 17:06:21;;;;;;;4.13;2.60;;;;;;;3.19;100.00;94204.91;2060281;28;20026;-79
2024/01/29 17:07:25;;;;;;;3.75;2.45;;;;;;;3.13;100.00;94201.78;2072702;28;20060;-79
2024/01/29 17:08:46;;;;;;;3.65;2.20;;;;;;;3.02;100.00;94208.66;2088663;28;20017;-80
2024/01/29 17:10:07;;;;;;;3.38;2.30;;;;;;;2.96;100.00;94202.13;2082187;28;20017;-78
2024/01/29 17:11:11;;;;;;;5.07;2.20;;;;;;;2.98;100.00;94200.66;2043305;28;22383;-80
2024/01/29 17:12:12;;;;;;;5.68;2.45;;;;;;;2.96;100.00;94199.47;2047153;28;20033;-79
2024/01/29 17:13:13;;;;;;;4.00;2.60;;;;;;;2.95;100.00;94198.72;2035194;28;20522;-79
2024/01/29 17:14:14;;;;;;;3.75;2.60;;;;;;;2.89;100.00;94192.13;1985825;28;20034;-78
2024/01/29 17:15:15;;;;;;;3.95;2.20;;;;;;;2.92;100.00;94199.38;1986052;28;20057;-81
2024/01/29 17:16:16;;;;;;;4.72;2.80;;;;;;;2.94;100.00;94191.09;1999559;28;20715;-78
2024/01/29 17:17:17;;;;;;;3.97;2.60;;;;;;;2.84;100.00;94189.75;2016211;28;20120;-79
2024/01/29 17:18:18;;;;;;;5.05;2.85;;;;;;;2.88;100.00;94192.47;2032283;28;20032;-79
2024/01/29 17:19:22;;;;;;;3.83;2.45;;;;;;;2.82;100.00;94194.59;2033478;28;20377;-79
2024/01/29 17:20:23;;;;;;;2.63;2.10;;;;;;;2.83;100.00;94190.09;2035157;28;20621;-80
2024/01/29 17:21:25;;;;;;;6.68;2.75;;;;;;;2.93;100.00;94197.50;2033569;28;20449;-79
2024/01/29 17:22:26;;;;;;;2.83;2.35;;;;;;;2.79;100.00;94200.56;2059620;28;21800;-79
2024/01/29 17:23:27;;;;;;;3.92;2.15;;;;;;;2.76;100.00;94207.28;2064400;28;20539;-79
2024/01/29 17:24:28;;;;;;;3.47;2.10;;;;;;;2.72;100.00;94205.66;2059082;28;20461;-79
2024/01/29 17:25:29;;;;;;;3.63;2.58;;;;;;;2.75;100.00;94200.47;2070218;28;20030;-80
2024/01/29 17:26:31;;;;;;;2.42;2.22;;;;;;;2.77;100.00;94210.72;2077095;28;20037;-81
2024/01/29 17:27:32;;;;;;;4.15;2.35;;;;;;;2.72;100.00;94201.16;2065284;28;20077;-79
2024/01/29 17:28:33;;;;;;;3.15;2.03;;;;;;;2.73;100.00;94196.66;2075265;28;20025;-79
2024/01/29 17:29:34;;;;;;;2.92;2.60;;;;;;;2.63;100.00;94208.44;2081491;28;20394;-81
2024/01/29 17:30:35;;;;;;;9.98;3.08;;;;;;;2.67;100.00;94197.97;2080285;28;20033;-78
2024/01/29 17:31:37;;;;;;;4.50;2.78;;;;;;;2.56;100.00;94210.16;2070957;28;20028;-78
2024/01/29 17:32:38;;;;;;;4.03;2.22;;;;;;;2.52;100.00;94202.91;2070081;28;20040;-79
2024/01/29 17:33:40;;;;;;;3.50;2.50;;;;;;;2.50;100.00;94206.97;2071409;28;20029;-80
2024/01/29 17:34:40;;;;;;;3.55;2.38;;;;;;;2.41;100.00;94209.00;2072938;28;20104;-80
2024/01/29 17:35:41;;;;;;;3.47;2.22;;;;;;;2.49;100.00;94216.00;2087682;28;20919;-78
2024/01/29 17:36:42;;;;;;;7.55;3.25;;;;;;;2.45;100.00;94215.91;2079889;28;20116;-80
2024/01/29 17:37:44;;;;;;;2.72;2.03;;;;;;;2.37;100.00;94216.03;2088044;28;20032;-80
2024/01/29 17:38:45;;;;;;;3.28;2.42;;;;;;;2.31;100.00;94218.16;2087452;28;20825;-81
2024/01/29 17:39:46;;;;;;;3.45;2.10;;;;;;;2.34;100.00;94220.13;2079866;28;20033;-80
2024/01/29 17:40:47;;;;;;;2.83;2.30;;;;;;;2.27;100.00;94220.69;2072828;28;20030;-80
2024/01/29 17:41:48;;;;;;;3.58;2.10;;;;;;;2.29;100.00;94228.28;2079782;28;20615;-81
2024/01/29 17:42:49;;;;;;;3.10;2.10;;;;;;;2.27;100.00;94225.97;2086599;28;20500;-78
2024/01/29 17:43:50;;;;;;;3.47;2.15;;;;;;;2.20;100.00;94225.03;2086458;28;20025;-79
2024/01/29 17:44:53;;;;;;;3.50;2.22;;;;;;;2.18;100.00;94230.63;2082403;28;20025;-82
2024/01/29 17:45:55;;;;;;;4.03;2.55;;;;;;;2.32;100.00;94240.03;2078368;28;20025;-81
2024/01/29 17:46:56;;;;;;;2.97;2.35;;;;;;;2.37;100.00;94235.31;2077935;28;20463;-80
2024/01/29 17:47:57;;;;;;;4.88;2.47;;;;;;;2.42;100.00;94242.22;2063328;28;20073;-83
2024/01/29 17:48:58;;;;;;;3.90;2.60;;;;;;;2.47;100.00;94240.09;2066870;28;20591;-83
2024/01/29 17:49:59;;;;;;;3.95;2.65;;;;;;;2.56;100.00;94239.94;2075688;28;20132;-81
2024/01/29 17:51:01;;;;;;;4.72;2.50;;;;;;;2.59;100.00;94244.56;2080528;28;20025;-82
2024/01/29 17:52:03;;;;;;;2.70;2.20;;;;;;;2.61;100.00;94242.34;2070710;28;20030;-82
2024/01/29 17:53:04;;;;;;;3.28;2.75;;;;;;;2.70;100.00;94239.53;2075618;28;20040;-82
2024/01/29 17:54:05;;;;;;;4.03;3.13;;;;;;;2.59;100.00;94244.56;2075944;28;20096;-81
2024/01/29 17:55:06;;;;;;;7.05;3.45;;;;;;;2.67;100.00;94240.97;2065654;28;20026;-80
2024/01/29 17:56:09;;;;;;;4.60;3.58;;;;;;;2.61;100.00;94238.94;2076031;28;20113;-82
2024/01/29 17:57:11;;;;;;;5.45;3.17;;;;;;;2.59;100.00;94241.13;2066041;28;20042;-82
2024/01/29 17:58:12;;;;;;;5.55;3.85;;;;;;;2.73;100.00;94242.28;2069293;28;20032;-82
2024/01/29 17:59:14;;;;;;;3.33;3.03;;;;;;;2.68;100.00;94242.53;2079936;28;20017;-81
2024/01/29 18:00:15;;;;;;;4.18;3.13;;;;;;;2.72;100.00;94245.25;2081373;28;20018;-82
2024/01/29 18:01:16;;;;;;;4.53;2.88;;;;;;;2.71;100.00;94241.84;2072653;28;20042;-82
2024/01/29 18:02:17;;;;;;;3.08;2.70;;;;;;;2.67;100.00;94242.84;2070897;28;20679;-81
2024/01/29 18:03:18;;;;;;;4.72;2.72;;;;;;;2.53;100.00;94241.38;2079908;28;20021;-81
2024/01/29 18:04:19;;;;;;;3.20;2.63;;;;;;;2.51;100.00;94234.91;2075254;28;20048;-82
2024/01/29 18:05:21;;;;;;;5.25;2.58;;;;;;;2.62;100.00;94241.22;2064398;28;20022;-82
2024/01/29 18:06:22;;;;;;;4.13;2.17;;;;;;;2.59;100.00;94241.13;2072187;28;20558;-81
2024/01/29 18:07:23;;;;;;;4.03;2.50;;;;;;;2.51;100.00;94246.22;2079512;28;20128;-83
2024/01/29 18:08:27;;;;;;;3.17;2.53;;;;;;;2.36;100.00;94249.56;2080907;28;20034;-81
2024/01/29 18:09:28;;;;;;;2.47;2.17;;;;;;;2.34;100.00;94246.53;2081998;28;20039;-82
2024/01/29 18:10:29;;;;;;;3.13;2.45;;;;;;;2.32;100.00;94238.16;2092854;28;20033;-83
2024/01/29 18:11:30;;;;;;;4.13;2.65;;;;;;;2.33;100.00;94242.34;2087910;28;20144;-82
2024/01/29 18:12:31;;;;;;;3.40;2.30;;;;;;;2.31;100.00;94238.50;2079717;28;20028;-83
2024/01/29 18:13:33;;;;;;;3.13;2.45;;;;;;;2.33;100.00;94238.91;2079507;28;20073;-80
2024/01/29 18:14:34;;;;;;;2.67;2.28;;;;;;;2.37;100.00;94240.59;2082237;28;20044;-81
2024/01/29 18:15:35;;;;;;;3.35;2.50;;;;;;;2.32;100.00;94240.78;2081938;28;20025;-82
2024/01/29 18:16:36;;;;;;;3.83;2.53;;;;;;;1.93;100.00;94242.31;2066125;28;20599;-80
2024/01/29 18:17:37;;;;;;;2.90;2.33;;;;;;;1.98;100.00;94245.53;2072119;28;20419;-78
2024/01/29 18:18:38;;;;;;;2.78;2.53;;;;;;;1.93;100.00;94250.22;2077537;28;20039;-78
2024/01/29 18:19:39;;;;;;;3.08;2.05;;;;;;;1.87;100.00;94247.06;2072288;28;20029;-78
2024/01/29 18:20:40;;;;;;;4.20;2.53;;;;;;;1.84;100.00;94245.09;2087274;28;20036;-80
2024/01/29 18:21:42;;;;;;;5.50;2.63;;;;;;;1.88;100.00;94243.31;2081591;28;20029;-77
2024/01/29 18:22:43;;;;;;;4.38;2.88;;;;;;;1.70;100.00;94247.31;2082248;28;20020;-79
2024/01/29 18:23:44;;;;;;;3.47;2.67;;;;;;;1.58;100.00;94248.09;2082672;28;20032;-78
2024/01/29 18:24:45;;;;;;;6.47;3.60;;;;;;;1.54;100.00;94254.34;2085360;28;20468;-80
2024/01/29 18:25:46;;;;;;;5.88;3.65;;;;;;;1.58;100.00;94249.94;2088070;28;20111;-78
2024/01/29 18:26:47;;;;;;;5.82;3.92;;;;;;;1.70;100.00;94263.88;2078118;28;20403;-80
2024/01/29 18:27:48;;;;;;;9.80;4.90;;;;;;;1.75;100.00;94254.97;2084512;28;20124;-79
2024/01/29 18:28:49;;;;;;;6.13;4.82;;;;;;;1.83;100.00;94262.00;2095014;28;20044;-79
2024/01/29 18:29:50;;;;;;;5.78;4.20;;;;;;;1.79;100.00;94263.00;2095270;28;20099;-78
2024/01/29 18:30:51;;;;;;;6.75;4.20;;;;;;;1.78;100.00;94264.88;2079111;28;20080;-79
2024/01/29 18:31:54;;;;;;;4.72;4.00;;;;;;;1.76;100.00;94256.53;2075169;28;20440;-78
2024/01/29 18:32:55;;;;;;;5.95;3.58;;;;;;;1.73;100.00;94263.22;2085302;28;20053;-81
2024/01/29 18:33:56;;;;;;;7.80;3.42;;;;;;;1.69;100.00;94262.34;2085660;28;20037;-80
2024/01/29 18:34:57;;;;;;;4.60;3.50;;;;;;;1.75;100.00;94261.03;2088701;28;20370;-80
2024/01/29 18:35:58;;;;;;;4.60;2.95;;;;;;;1.75;100.00;94261.03;2090586;28;20039;-80
2024/01/29 18:36:59;;;;;;;6.35;3.20;;;;;;;1.74;100.00;94259.50;2088448;28;20040;-79
2024/01/29 18:38:01;;;;;;;5.28;3.40;;;;;;;1.68;100.00;94258.19;2082042;28;20029;-78
2024/01/29 18:39:03;;;;;;;5.95;3.45;;;;;;;1.73;100.00;94257.97;2078898;28;20058;-78
2024/01/29 18:40:04;;;;;;;6.45;3.42;;;;;;;1.71;100.00;94256.75;2089695;28;20111;-77
2024/01/29 18:41:14;;;;;;;5.43;3.58;;;;;;;1.52;100.00;94257.31;2081246;28;20120;-80
2024/01/29 18:42:17;;;;;;;5.93;3.50;;;;;;;1.47;100.00;94263.56;2078191;28;20028;-80
2024/01/29 18:43:18;;;;;;;6.13;3.33;;;;;;;1.55;100.00;94259.28;2077856;28;20033;-80
2024/01/29 18:44:19;;;;;;;6.95;3.72;;;;;;;1.60;100.00;94261.69;2074226;28;20112;-78
2024/01/29 18:45:20;;;;;;;6.20;3.33;;;;;;;1.33;100.00;94262.38;2062386;28;20030;-78
2024/01/29 18:46:21;;;;;;;9.20;4.10;;;;;;;1.50;100.00;94257.66;2070851;28;20123;-80
2024/01/29 18:47:22;;;;;;;5.20;3.78;;;;;;;1.48;100.00;94259.06;2072561;28;20512;-78
2024/01/29 18:48:23;;;;;;;5.80;3.50;;;;;;;1.45;100.00;94263.13;2073414;28;21430;-77
2024/01/29 18:49:23;;;;;;;6.45;3.63;;;;;;;1.43;100.00;94261.91;2078820;28;20820;-79
2024/01/29 18:50:24;;;;;;;5.93;3.60;;;;;;;1.36;100.00;94264.31;2065049;28;20766;-78
2024/01/29 18:51:27;;;;;;;7.45;3.60;;;;;;;1.30;100.00;94260.38;2070680;28;20498;-78
2024/01/29 18:52:28;;;;;;;5.78;4.05;;;;;;;1.22;100.00;94257.50;2087673;28;20035;-79
2024/01/29 18:53:30;;;;;;;5.30;3.47;;;;;;;1.31;100.00;94256.66;2079917;28;20033;-80
2024/01/29 18:54:31;;;;;;;4.90;3.67;;;;;;;1.34;100.00;94259.41;2083798;28;20477;-81
2024/01/29 18:55:32;;;;;;;7.10;3.75;;;;;;;1.22;100.00;94262.00;2085517;28;20036;-80
2024/01/29 18:56:33;;;;;;;5.18;3.47;;;;;;;1.19;100.00;94260.81;2084959;28;20457;-79
2024/01/29 18:57:34;;;;;;;4.85;3.88;;;;;;;1.30;100.00;94266.41;2102854;28;20373;-80
2024/01/29 18:58:35;;;;;;;7.75;4.03;;;;;;;1.29;100.00;94256.22;2088205;28;20183;-79
2024/01/29 18:59:36;;;;;;;6.25;3.67;;;;;;;1.08;100.00;94262.31;2076288;28;20597;-77
2024/01/29 19:00:37;;;;;;;6.72;4.00;;;;;;;1.20;100.00;94258.94;2088366;28;20322;-78
2024/01/29 19:01:38;;;;;;;7.53;3.92;;;;;;;1.26;100.00;94266.28;2083262;28;20104;-78
2024/01/29 19:02:38;;;;;;;4.88;3.78;;;;;;;1.22;100.00;94260.16;2082567;28;20476;-78